Time;durP1;ratioP1;P1;durP2;ratioP2;P2;SDS_P1;SDS_P2;PMS_P1;PMS_P2;Temp;Humidity;BMP_temperature;BMP_pressure;BME280_temperature;BME280_humidity;BME280_pressure;Samples;Min_cycle;Max_cycle;Signal;HPM_P1;HPM_P2
2023/10/09 00:02:48;;;;;;;6.15;0.45;;;;;;;17.65;100.00;101904.38;10457181;28;20055;-76
2023/10/09 00:07:55;;;;;;;0.73;0.65;;;;;;;17.61;100.00;101879.97;10458515;28;20072;-77
2023/10/09 00:12:58;;;;;;;1.08;0.60;;;;;;;17.84;100.00;101866.34;10457023;28;20487;-77
2023/10/09 00:17:59;;;;;;;0.30;0.30;;;;;;;18.49;100.00;101877.47;10456581;28;20094;-77
2023/10/09 00:23:01;;;;;;;1.98;0.68;;;;;;;19.11;100.00;101898.81;10456196;28;20056;-77
2023/10/09 00:28:05;;;;;;;0.85;0.63;;;;;;;19.05;100.00;101901.41;10455916;28;20056;-76
2023/10/09 00:33:07;;;;;;;0.10;0.10;;;;;;;18.95;100.00;101903.09;10439411;28;20059;-77
2023/10/09 00:43:28;;;;;;;1.85;0.50;;;;;;;19.44;100.00;101899.88;10455660;28;20047;-77
2023/10/09 00:48:31;;;;;;;0.10;0.10;;;;;;;19.75;100.00;101900.03;10449177;28;20106;-77
2023/10/09 00:53:33;;;;;;;0.60;0.55;;;;;;;19.85;100.00;101899.19;10455509;28;20487;-76
2023/10/09 00:58:36;;;;;;;1.65;1.00;;;;;;;19.68;100.00;101890.41;10438154;28;20045;-76
2023/10/09 01:03:40;;;;;;;0.63;0.57;;;;;;;18.95;100.00;101872.59;10455014;28;20072;-77
2023/10/09 01:18:52;;;;;;;9.63;1.20;;;;;;;19.20;100.00;101871.91;10454704;28;20048;-78
2023/10/09 01:24:03;;;;;;;1.35;0.55;;;;;;;19.88;100.00;101870.47;10438160;28;20202;-77
2023/10/09 01:29:14;;;;;;;0.85;0.52;;;;;;;19.64;100.00;101859.03;10454259;28;20124;-77
2023/10/09 01:34:17;;;;;;;0.28;0.28;;;;;;;19.58;100.00;101859.00;10437821;28;20045;-77
2023/10/09 01:39:39;;;;;;;1.55;1.10;;;;;;;20.20;100.00;101864.44;10437664;28;20041;-77
2023/10/09 01:44:44;;;;;;;1.95;1.20;;;;;;;20.39;100.00;101853.94;10454122;28;20535;-77
2023/10/09 01:49:49;;;;;;;2.75;2.55;;;;;;;20.15;100.00;101854.81;10423986;28;20131;-76
2023/10/09 01:54:51;;;;;;;1.35;0.82;;;;;;;20.31;100.00;101860.91;10425915;28;20140;-77
2023/10/09 01:59:53;;;;;;;1.30;0.82;;;;;;;20.15;100.00;101846.97;10419197;28;20059;-77
2023/10/09 02:15:45;;;;;;;31.35;3.03;;;;;;;20.52;100.00;101831.28;10463445;28;20041;-76
2023/10/09 02:21:34;;;;;;;3.33;1.45;;;;;;;20.60;100.00;101822.53;10444379;28;20076;-77
2023/10/09 02:31:40;;;;;;;2.25;1.38;;;;;;;20.53;100.00;101815.56;10439609;28;20055;-77
2023/10/09 02:36:43;;;;;;;2.25;1.15;;;;;;;20.75;100.00;101813.81;10460122;28;20048;-77
2023/10/09 02:41:50;;;;;;;3.53;1.63;;;;;;;20.77;100.00;101803.34;10443540;28;20396;-77
2023/10/09 02:46:57;;;;;;;1.15;0.65;;;;;;;20.57;100.00;101796.38;10456628;28;20051;-77
2023/10/09 02:51:59;;;;;;;1.02;0.90;;;;;;;20.75;100.00;101794.59;10459607;28;20087;-77
2023/10/09 02:57:07;;;;;;;1.80;1.05;;;;;;;20.70;100.00;101780.63;10443043;28;20071;-76
2023/10/09 03:02:10;;;;;;;1.58;0.70;;;;;;;20.86;100.00;101782.38;10459436;28;20044;-77
2023/10/09 03:07:15;;;;;;;3.03;1.63;;;;;;;20.75;100.00;101776.28;10460835;28;20053;-76
2023/10/09 03:12:18;;;;;;;0.85;0.75;;;;;;;21.06;100.00;101766.59;10442468;28;20049;-77
2023/10/09 03:17:20;;;;;;;3.92;1.27;;;;;;;20.99;100.00;101766.59;10460465;28;20132;-77
2023/10/09 03:22:23;;;;;;;3.78;1.05;;;;;;;20.91;100.00;101759.66;10458198;28;20404;-76
2023/10/09 03:27:25;;;;;;;1.38;1.10;;;;;;;20.66;100.00;101757.97;10458425;28;20053;-77
2023/10/09 03:32:27;;;;;;;1.38;1.08;;;;;;;21.14;100.00;101769.16;10440514;28;20487;-77
2023/10/09 03:37:34;;;;;;;1.27;1.13;;;;;;;21.03;100.00;101765.72;10454944;28;20550;-77
2023/10/09 03:42:36;;;;;;;2.80;1.92;;;;;;;21.01;100.00;101757.00;10458556;28;20570;-77
2023/10/09 03:47:43;;;;;;;1.88;1.17;;;;;;;21.12;100.00;101755.19;10458223;28;20045;-77
2023/10/09 03:52:45;;;;;;;1.20;1.00;;;;;;;21.39;100.00;101767.28;10439892;28;20055;-77
2023/10/09 03:57:47;;;;;;;1.58;1.27;;;;;;;21.33;100.00;101761.22;10457759;28;20041;-77
2023/10/09 04:02:49;;;;;;;1.15;1.02;;;;;;;21.15;100.00;101764.81;10457742;28;20045;-77
2023/10/09 04:07:58;;;;;;;0.85;0.70;;;;;;;20.25;100.00;101746.69;10457833;28;20063;-78
2023/10/09 04:13:00;;;;;;;2.25;1.45;;;;;;;20.39;100.00;101741.41;10457301;28;20490;-77
2023/10/09 04:18:04;;;;;;;11.07;3.33;;;;;;;20.59;100.00;101747.47;10457003;28;20226;-77
2023/10/09 04:23:06;;;;;;;1.88;0.90;;;;;;;21.29;100.00;101769.97;10456896;28;20087;-77
2023/10/09 04:28:09;;;;;;;0.75;0.68;;;;;;;21.15;100.00;101778.78;10439430;28;20048;-77
2023/10/09 04:38:34;;;;;;;0.95;0.85;;;;;;;21.27;100.00;101771.72;10446742;28;20053;-77
2023/10/09 04:43:35;;;;;;;0.63;0.60;;;;;;;21.29;100.00;101765.63;10437918;28;20044;-77
2023/10/09 04:48:45;;;;;;;2.10;1.25;;;;;;;21.24;100.00;101783.97;10443343;28;20064;-77
2023/10/09 04:53:59;;;;;;;1.60;0.80;;;;;;;21.37;100.00;101781.28;10425612;28;20053;-77
2023/10/09 04:59:07;;;;;;;0.80;0.40;;;;;;;21.16;100.00;101791.00;10438157;28;20075;-77
2023/10/09 05:04:27;;;;;;;4.07;1.60;;;;;;;21.22;100.00;101777.88;10454690;28;20411;-77
2023/10/09 05:09:55;;;;;;;0.65;0.60;;;;;;;21.34;100.00;101791.78;10454486;28;20070;-77
2023/10/09 05:15:08;;;;;;;1.30;1.10;;;;;;;21.37;100.00;101800.50;10447223;28;20041;-76
2023/10/09 05:31:02;;;;;;;1.75;0.88;;;;;;;21.41;100.00;101783.00;10456306;28;20040;-77
2023/10/09 05:36:17;;;;;;;2.00;1.00;;;;;;;21.32;100.00;101770.81;10455394;28;20048;-77
2023/10/09 05:41:45;;;;;;;2.88;0.77;;;;;;;21.07;100.00;101777.94;10448664;28;20411;-77
2023/10/09 05:52:32;;;;;;;1.67;0.70;;;;;;;21.69;100.00;101799.47;10463959;28;20491;-77
2023/10/09 05:58:53;;;;;;;0.90;0.57;;;;;;;21.35;100.00;101832.84;10461936;28;20049;-77
2023/10/09 06:08:24;;;;;;;2.13;1.20;;;;;;;21.76;100.00;101833.53;10455129;28;20049;-78
2023/10/09 06:14:02;;;;;;;3.40;1.00;;;;;;;21.49;100.00;101828.41;10458065;28;20178;-77
2023/10/09 06:19:07;;;;;;;1.13;0.77;;;;;;;21.38;100.00;101843.31;10443259;28;20090;-77
2023/10/09 06:24:17;;;;;;;1.02;0.90;;;;;;;21.35;100.00;101832.84;10456306;28;20393;-77
2023/10/09 06:34:44;;;;;;;0.60;0.40;;;;;;;21.09;100.00;101844.31;10456040;28;19927;-77
2023/10/09 06:40:48;;;;;;;2.35;0.75;;;;;;;21.31;100.00;101858.19;10460207;28;20286;-77
2023/10/09 06:45:44;;;;;;;0.80;0.70;;;;;;;20.86;100.00;101833.84;10436934;28;20129;-77
2023/10/09 06:50:56;;;;;;;0.95;0.70;;;;;;;20.98;100.00;101793.66;10452494;28;20041;-77
2023/10/09 06:56:05;;;;;;;0.40;0.38;;;;;;;21.63;100.00;101830.13;10449672;28;20055;-77
2023/10/09 07:01:25;;;;;;;1.27;0.90;;;;;;;21.34;100.00;101833.72;10459879;28;20059;-77
2023/10/09 07:07:09;;;;;;;2.55;1.35;;;;;;;21.32;100.00;101819.75;10459439;28;20510;-77
2023/10/09 07:27:43;;;;;;;1.17;0.88;;;;;;;21.83;100.00;101851.88;10459243;28;20497;-77
2023/10/09 07:32:47;;;;;;;0.45;0.45;;;;;;;21.42;100.00;101845.03;10449417;28;20051;-77
2023/10/09 07:37:50;;;;;;;2.53;0.77;;;;;;;21.69;100.00;101845.81;10441325;28;20421;-77
2023/10/09 07:42:56;;;;;;;0.55;0.43;;;;;;;21.78;100.00;101837.88;10441538;28;20059;-77
2023/10/09 07:48:05;;;;;;;0.80;0.65;;;;;;;21.82;100.00;101844.88;10441504;28;20114;-76
2023/10/09 07:53:26;;;;;;;0.57;0.38;;;;;;;21.37;100.00;101844.19;10418892;28;20041;-77
2023/10/09 07:58:28;;;;;;;3.25;1.02;;;;;;;21.44;100.00;101850.28;10450020;28;20465;-77
2023/10/09 08:03:32;;;;;;;1.25;0.63;;;;;;;22.00;100.00;101856.13;10457401;28;20045;-77
2023/10/09 08:14:00;;;;;;;0.75;0.65;;;;;;;22.22;100.00;101853.34;10457270;28;20076;-76
2023/10/09 08:19:32;;;;;;;2.08;1.00;;;;;;;22.40;100.00;101811.22;10440419;28;20041;-77
2023/10/09 08:24:49;;;;;;;2.78;1.38;;;;;;;21.62;100.00;101815.28;10457504;28;20044;-76
2023/10/09 08:30:11;;;;;;;1.65;1.35;;;;;;;22.12;100.00;101795.69;10437119;28;20037;-77
2023/10/09 08:35:32;;;;;;;2.22;1.73;;;;;;;21.84;100.00;101779.28;10457747;28;20119;-76
2023/10/09 08:40:39;;;;;;;1.02;0.95;;;;;;;22.41;100.00;101802.47;10450291;28;20037;-76
2023/10/09 08:45:51;;;;;;;1.92;1.02;;;;;;;22.47;100.00;101796.28;10439427;28;20056;-77
2023/10/09 08:50:54;;;;;;;5.25;1.70;;;;;;;21.92;100.00;101779.22;10448328;28;20045;-76
2023/10/09 08:55:56;;;;;;;0.50;0.50;;;;;;;22.24;100.00;101813.09;10443888;28;20059;-77
2023/10/09 09:01:00;;;;;;;1.20;0.75;;;;;;;22.41;100.00;101838.38;10455586;28;20045;-77
2023/10/09 09:06:02;;;;;;;1.13;0.85;;;;;;;22.69;100.00;101859.13;10454598;28;20477;-77
2023/10/09 09:11:17;;;;;;;2.22;1.20;;;;;;;23.02;100.00;101864.88;10452626;28;20056;-76
2023/10/09 09:16:21;;;;;;;1.98;1.02;;;;;;;22.91;100.00;101859.75;10454581;28;20071;-77
2023/10/09 09:21:23;;;;;;;2.45;1.63;;;;;;;22.75;100.00;101875.66;10452866;28;20049;-77
2023/10/09 09:26:44;;;;;;;1.10;0.88;;;;;;;22.70;100.00;101882.72;10453841;28;20056;-77
2023/10/09 09:31:57;;;;;;;1.45;0.75;;;;;;;22.93;100.00;101873.75;10454089;28;20056;-78
2023/10/09 09:36:59;;;;;;;1.27;0.90;;;;;;;22.76;100.00;101885.28;10432349;28;20052;-76
2023/10/09 09:42:07;;;;;;;0.95;0.63;;;;;;;22.94;100.00;101901.78;10431036;28;20048;-77
2023/10/09 09:47:13;;;;;;;1.25;1.02;;;;;;;22.93;100.00;101894.78;10446051;28;20496;-77
2023/10/09 09:52:18;;;;;;;1.55;1.00;;;;;;;22.92;100.00;101887.78;10451483;28;20041;-77
2023/10/09 09:57:26;;;;;;;2.08;0.98;;;;;;;23.04;100.00;101882.41;10451424;28;20052;-77
2023/10/09 10:02:35;;;;;;;1.52;0.95;;;;;;;23.01;100.00;101882.44;10446732;28;20045;-77
2023/10/09 10:07:43;;;;;;;0.73;0.50;;;;;;;23.57;100.00;101898.47;10434949;28;20051;-76
2023/10/09 10:13:00;;;;;;;1.50;0.88;;;;;;;23.11;100.00;101889.34;10413437;28;20052;-77
2023/10/09 10:18:04;;;;;;;1.58;1.08;;;;;;;23.59;100.00;101903.69;10451383;28;20048;-76
2023/10/09 10:23:20;;;;;;;3.67;1.27;;;;;;;23.26;100.00;101900.59;10450581;28;20115;-77
2023/10/09 10:28:38;;;;;;;1.98;0.98;;;;;;;23.23;100.00;101898.00;10434394;28;20057;-77
2023/10/09 10:34:06;;;;;;;2.42;1.80;;;;;;;23.54;100.00;101901.13;10457995;28;20169;-77
2023/10/09 10:39:19;;;;;;;1.27;0.45;;;;;;;23.72;100.00;101896.53;10442389;28;20412;-77
2023/10/09 10:44:36;;;;;;;1.13;0.47;;;;;;;23.55;100.00;101902.00;10451100;28;20504;-77
2023/10/09 10:49:43;;;;;;;1.58;0.65;;;;;;;23.91;100.00;101903.25;10448471;28;20447;-77
2023/10/09 10:54:45;;;;;;;1.70;0.73;;;;;;;24.08;100.00;101903.06;10428876;28;20149;-78
2023/10/09 10:59:49;;;;;;;3.03;1.30;;;;;;;24.12;100.00;101908.28;10431690;28;20118;-78
2023/10/09 11:05:13;;;;;;;1.83;0.93;;;;;;;23.88;100.00;101913.84;10434254;28;20492;-78
2023/10/09 11:10:27;;;;;;;0.80;0.63;;;;;;;24.03;100.00;101896.97;10421050;28;20037;-78
2023/10/09 11:15:44;;;;;;;0.50;0.50;;;;;;;24.45;100.00;101887.59;10454852;28;20059;-76
2023/10/09 11:21:22;;;;;;;1.20;0.80;;;;;;;24.48;100.00;101892.78;10460695;28;20116;-78
2023/10/09 11:26:30;;;;;;;0.75;0.65;;;;;;;24.66;100.00;101886.31;10447746;28;20558;-77
2023/10/09 11:31:33;;;;;;;2.60;1.45;;;;;;;24.78;100.00;101890.53;10459145;28;20034;-77
2023/10/09 11:36:35;;;;;;;2.83;1.40;;;;;;;24.67;100.00;101883.72;10458020;28;20049;-78
2023/10/09 11:41:41;;;;;;;2.90;0.68;;;;;;;24.90;100.00;101889.44;10440668;28;20044;-77
2023/10/09 11:47:22;;;;;;;0.75;0.55;;;;;;;25.00;100.00;101889.25;10458950;28;20099;-77
2023/10/09 11:52:38;;;;;;;1.25;0.82;;;;;;;25.38;100.00;101896.44;10434593;28;20041;-77
2023/10/09 11:57:40;;;;;;;1.92;0.60;;;;;;;24.52;100.00;101899.75;10440518;28;20045;-76
2023/10/09 12:02:43;;;;;;;1.00;0.47;;;;;;;25.10;100.00;101910.19;10457534;28;20044;-77
2023/10/09 12:07:47;;;;;;;0.90;0.63;;;;;;;24.76;100.00;101909.03;10456980;28;20052;-77
2023/10/09 12:12:49;;;;;;;1.25;0.68;;;;;;;24.70;100.00;101902.09;10440184;28;20136;-77
2023/10/09 12:17:53;;;;;;;0.68;0.68;;;;;;;24.69;100.00;101899.50;10439443;28;20510;-77
2023/10/09 12:22:59;;;;;;;0.28;0.28;;;;;;;24.65;100.00;101890.75;10456511;28;20045;-76
2023/10/09 12:28:02;;;;;;;0.15;0.15;;;;;;;24.81;100.00;101890.50;10456147;28;20098;-77
2023/10/09 12:33:07;;;;;;;0.60;0.30;;;;;;;24.49;100.00;101889.25;10456549;28;20041;-77
2023/10/09 12:38:10;;;;;;;0.20;0.20;;;;;;;25.15;100.00;101874.03;10453203;28;20049;-77
2023/10/09 12:43:19;;;;;;;0.13;0.13;;;;;;;24.80;100.00;101880.84;10455508;28;20469;-77
2023/10/09 12:48:23;;;;;;;1.20;0.40;;;;;;;24.95;100.00;101879.69;10439852;28;20045;-77
2023/10/09 12:53:28;;;;;;;0.40;0.25;;;;;;;24.82;100.00;101879.06;10454492;28;20079;-77
2023/10/09 12:58:37;;;;;;;0.20;0.20;;;;;;;25.31;100.00;101874.63;10455261;28;20037;-76
2023/10/09 13:03:43;;;;;;;0.28;0.28;;;;;;;25.10;100.00;101875.91;10455278;28;20044;-77
2023/10/09 13:08:45;;;;;;;0.55;0.32;;;;;;;25.03;100.00;101881.28;10454852;28;20151;-76
2023/10/09 13:13:47;;;;;;;0.90;0.45;;;;;;;24.96;100.00;101887.59;10437863;28;20049;-76
2023/10/09 13:18:50;;;;;;;0.55;0.30;;;;;;;25.14;100.00;101888.09;10441500;28;20045;-77
2023/10/09 13:23:54;;;;;;;0.20;0.20;;;;;;;24.95;100.00;101892.88;10437549;28;20041;-77
2023/10/09 13:28:57;;;;;;;0.15;0.15;;;;;;;24.53;100.00;101890.97;10454340;28;20057;-78
2023/10/09 13:34:00;;;;;;;0.08;0.08;;;;;;;25.02;100.00;101900.66;10454418;28;20053;-78
2023/10/09 13:44:27;;;;;;;0.77;0.43;;;;;;;24.46;100.00;101899.88;10452180;28;20102;-77
2023/10/09 13:49:31;;;;;;;0.47;0.30;;;;;;;24.66;100.00;101897.78;10453868;28;20041;-77
2023/10/09 13:59:36;;;;;;;0.28;0.20;;;;;;;24.55;100.00;101899.69;10437868;28;20046;-77
2023/10/09 14:04:38;;;;;;;0.00;0.00;;;;;;;25.00;100.00;101910.34;10456175;28;20132;-77
2023/10/09 14:09:54;;;;;;;0.38;0.13;;;;;;;24.88;100.00;101907.94;10453505;28;20382;-76
2023/10/09 14:14:57;;;;;;;0.10;0.10;;;;;;;25.69;100.00;101901.09;10452418;28;20048;-77
2023/10/09 14:20:25;;;;;;;0.85;0.47;;;;;;;25.28;100.00;101890.47;10461371;28;20045;-77
2023/10/09 14:25:23;;;;;;;1.65;1.55;;;;;;;24.77;100.00;101904.63;10461105;28;20056;-78
2023/10/09 14:30:32;;;;;;;0.15;0.10;;;;;;;24.64;100.00;101896.91;10456065;28;20051;-77
2023/10/09 14:35:33;;;;;;;0.08;0.08;;;;;;;24.70;100.00;101888.91;10461896;28;20072;-77
2023/10/09 14:40:39;;;;;;;0.65;0.65;;;;;;;25.02;100.00;101889.22;10433343;28;20043;-77
2023/10/09 14:45:41;;;;;;;0.57;0.30;;;;;;;24.80;100.00;101886.97;10446033;28;20045;-77
2023/10/09 14:50:52;;;;;;;0.45;0.32;;;;;;;24.76;100.00;101873.91;10442622;28;20071;-77
2023/10/09 14:55:55;;;;;;;3.13;0.93;;;;;;;25.18;100.00;101879.25;10451471;28;20068;-76
2023/10/09 15:00:57;;;;;;;0.30;0.17;;;;;;;25.21;100.00;101880.97;10452465;28;20033;-77
2023/10/09 15:05:59;;;;;;;2.22;0.65;;;;;;;24.85;100.00;101884.25;10441936;28;20416;-77
2023/10/09 15:11:01;;;;;;;0.88;0.45;;;;;;;25.48;100.00;101876.91;10458976;28;20049;-77
2023/10/09 15:16:03;;;;;;;0.63;0.30;;;;;;;24.99;100.00;101879.59;10458195;28;20048;-77
2023/10/09 15:21:06;;;;;;;0.10;0.10;;;;;;;24.99;100.00;101881.38;10458318;28;20051;-77
2023/10/09 15:26:08;;;;;;;0.40;0.40;;;;;;;24.74;100.00;101870.44;10445611;28;20048;-78
2023/10/09 15:31:16;;;;;;;0.30;0.20;;;;;;;25.01;100.00;101877.81;10457260;28;20357;-77
2023/10/09 15:36:20;;;;;;;0.20;0.10;;;;;;;25.03;100.00;101875.13;10432390;28;20049;-77
2023/10/09 15:41:22;;;;;;;0.10;0.10;;;;;;;25.05;100.00;101877.75;10459504;28;20047;-77
2023/10/09 15:46:25;;;;;;;1.88;0.45;;;;;;;24.57;100.00;101868.94;10457445;28;20045;-78
2023/10/09 15:51:28;;;;;;;0.08;0.05;;;;;;;24.80;100.00;101889.63;10440692;28;20575;-77
2023/10/09 15:56:30;;;;;;;0.35;0.30;;;;;;;24.93;100.00;101884.13;10441068;28;20523;-77
2023/10/09 16:01:32;;;;;;;0.20;0.20;;;;;;;25.01;100.00;101871.69;10443036;28;20065;-77
2023/10/09 16:06:33;;;;;;;0.00;0.00;;;;;;;25.15;100.00;101871.41;10445167;28;20056;-77
2023/10/09 16:11:35;;;;;;;0.70;0.50;;;;;;;24.94;100.00;101886.72;10456756;28;20140;-77
2023/10/09 16:16:41;;;;;;;0.80;0.17;;;;;;;25.06;100.00;101895.31;10441934;28;20409;-77
2023/10/09 16:21:43;;;;;;;0.15;0.15;;;;;;;25.26;100.00;101898.44;10457500;28;20484;-77
2023/10/09 16:26:50;;;;;;;0.10;0.10;;;;;;;25.19;100.00;101908.22;10456701;28;20041;-76
2023/10/09 16:31:54;;;;;;;0.30;0.30;;;;;;;24.85;100.00;101913.25;10438159;28;20124;-77
2023/10/09 16:36:56;;;;;;;0.50;0.45;;;;;;;25.00;100.00;101923.53;10430165;28;20136;-77
2023/10/09 16:41:59;;;;;;;0.43;0.38;;;;;;;24.81;100.00;101917.72;10440510;28;20446;-77
2023/10/09 16:47:00;;;;;;;0.35;0.20;;;;;;;24.60;100.00;101928.59;10438596;28;20058;-78
2023/10/09 16:52:10;;;;;;;0.43;0.32;;;;;;;24.58;100.00;101930.38;10426910;28;20137;-77
2023/10/09 16:57:12;;;;;;;0.20;0.20;;;;;;;24.38;100.00;101935.09;10421509;28;20503;-77
2023/10/09 17:02:22;;;;;;;1.30;0.20;;;;;;;24.53;100.00;101946.28;10454997;28;20049;-77
2023/10/09 17:07:27;;;;;;;;;;;;;;;24.63;100.00;101944.38;10457668;28;20112;-77
2023/10/09 17:12:29;;;;;;;0.10;0.10;;;;;;;24.22;100.00;101949.38;10456239;28;20612;-78
2023/10/09 17:17:31;;;;;;;0.25;0.15;;;;;;;24.12;100.00;101958.28;10455510;28;20432;-78
2023/10/09 17:22:34;;;;;;;0.20;0.20;;;;;;;24.19;100.00;101967.84;10422696;28;20443;-77
2023/10/09 17:27:36;;;;;;;0.55;0.20;;;;;;;24.23;100.00;101961.66;10414335;28;20516;-77
2023/10/09 17:32:38;;;;;;;0.25;0.10;;;;;;;23.97;100.00;101954.97;10449419;28;20041;-77
2023/10/09 17:37:41;;;;;;;0.65;0.10;;;;;;;24.08;100.00;101961.00;10439057;28;20049;-77
2023/10/09 17:42:44;;;;;;;0.57;0.28;;;;;;;24.12;100.00;101959.19;10414147;28;20108;-77
2023/10/09 17:47:45;;;;;;;0.52;0.50;;;;;;;24.08;100.00;101968.88;10414025;28;20072;-76
2023/10/09 17:52:48;;;;;;;0.25;0.10;;;;;;;23.92;100.00;101975.19;10414783;28;20048;-77
2023/10/09 17:57:50;;;;;;;0.70;0.45;;;;;;;24.01;100.00;101982.13;10414517;28;20123;-77
2023/10/09 18:02:52;;;;;;;0.10;0.10;;;;;;;23.94;100.00;101986.59;10455125;28;20104;-76
2023/10/09 18:08:01;;;;;;;0.00;0.00;;;;;;;24.00;100.00;101976.00;10427800;28;20045;-77
2023/10/09 18:13:04;;;;;;;0.47;0.25;;;;;;;23.98;100.00;101977.78;10423223;28;20103;-77
2023/10/09 18:18:09;;;;;;;0.32;0.30;;;;;;;23.58;100.00;101973.84;10412408;28;20569;-77
2023/10/09 18:23:11;;;;;;;0.32;0.32;;;;;;;23.58;100.00;101979.13;10450732;28;20106;-77
2023/10/09 18:28:14;;;;;;;0.20;0.10;;;;;;;23.57;100.00;101972.13;10454916;28;20052;-77
2023/10/09 18:33:16;;;;;;;2.83;2.38;;;;;;;23.43;100.00;101979.28;10446884;28;20099;-77
2023/10/09 18:38:18;;;;;;;0.15;0.15;;;;;;;23.26;100.00;101977.69;10453677;28;20049;-77
2023/10/09 18:43:19;;;;;;;0.30;0.20;;;;;;;23.06;100.00;101980.47;10432784;28;20045;-77
2023/10/09 18:48:22;;;;;;;0.85;0.40;;;;;;;23.04;100.00;101977.03;10453158;28;20144;-77
2023/10/09 18:53:26;;;;;;;0.25;0.25;;;;;;;23.11;100.00;101981.34;10436151;28;20053;-77
2023/10/09 18:58:27;;;;;;;0.20;0.10;;;;;;;22.92;100.00;101985.00;10460633;28;20076;-77
2023/10/09 19:03:29;;;;;;;0.13;0.13;;;;;;;23.17;100.00;101987.41;10444242;28;20139;-77
2023/10/09 19:08:32;;;;;;;2.10;0.52;;;;;;;23.09;100.00;101980.47;10431326;28;20057;-77
2023/10/09 19:13:38;;;;;;;0.13;0.10;;;;;;;23.57;100.00;101992.25;10461453;28;20045;-77
2023/10/09 19:18:40;;;;;;;0.10;0.10;;;;;;;23.55;100.00;101988.81;10459878;28;20479;-78
2023/10/09 19:23:46;;;;;;;0.45;0.28;;;;;;;23.48;100.00;101992.41;10409846;28;20050;-77
2023/10/09 19:28:48;;;;;;;0.52;0.20;;;;;;;23.03;100.00;101983.16;10446853;28;20080;-77
2023/10/09 19:33:51;;;;;;;0.30;0.20;;;;;;;23.21;100.00;101983.88;10459466;28;20443;-77
2023/10/09 19:38:53;;;;;;;0.82;0.35;;;;;;;23.21;100.00;101989.13;10459293;28;20072;-77
2023/10/09 19:43:55;;;;;;;0.30;0.20;;;;;;;23.38;100.00;102000.38;10459095;28;20045;-77
2023/10/09 19:48:57;;;;;;;0.50;0.43;;;;;;;23.17;100.00;101997.91;10439812;28;20049;-77
2023/10/09 19:53:59;;;;;;;0.30;0.22;;;;;;;23.48;100.00;101997.66;10417585;28;20049;-77
2023/10/09 19:59:00;;;;;;;0.22;0.15;;;;;;;23.46;100.00;101984.50;10435060;28;20571;-77
2023/10/09 20:04:02;;;;;;;0.75;0.30;;;;;;;23.47;100.00;101990.66;10454079;28;20563;-77
2023/10/09 20:09:11;;;;;;;0.00;0.00;;;;;;;23.23;100.00;101992.63;10447488;28;20048;-77
2023/10/09 20:14:14;;;;;;;0.25;0.20;;;;;;;23.23;100.00;101990.00;10457990;28;20124;-77
2023/10/09 20:19:17;;;;;;;0.32;0.32;;;;;;;23.19;100.00;102002.31;10458926;28;20052;-77
2023/10/09 20:24:19;;;;;;;0.05;0.05;;;;;;;23.21;100.00;102007.53;10433186;28;20049;-77
2023/10/09 20:29:20;;;;;;;0.43;0.20;;;;;;;23.16;100.00;102011.94;10416294;28;20045;-77
2023/10/09 20:34:24;;;;;;;0.38;0.15;;;;;;;23.17;100.00;102016.31;10399621;28;20045;-77
2023/10/09 20:39:25;;;;;;;0.30;0.20;;;;;;;23.09;100.00;102022.53;10449619;28;20049;-77
2023/10/09 20:44:28;;;;;;;0.00;0.00;;;;;;;23.27;100.00;102023.28;10438155;28;20048;-77
2023/10/09 20:49:33;;;;;;;0.32;0.30;;;;;;;23.35;100.00;102018.78;10472706;28;20073;-77
2023/10/09 20:54:35;;;;;;;0.40;0.32;;;;;;;23.60;100.00;102031.69;10456383;28;20045;-77
2023/10/09 20:59:36;;;;;;;0.32;0.28;;;;;;;23.33;100.00;102020.59;10439772;28;20143;-77
2023/10/09 21:04:38;;;;;;;1.20;0.22;;;;;;;23.44;100.00;102031.84;10456133;28;20049;-77
2023/10/09 21:09:40;;;;;;;0.10;0.10;;;;;;;23.17;100.00;102032.09;10415907;28;20045;-77
2023/10/09 21:14:43;;;;;;;0.65;0.65;;;;;;;23.05;100.00;102033.94;10454891;28;20464;-77
2023/10/09 21:19:49;;;;;;;0.10;0.10;;;;;;;22.79;100.00;102035.03;10454900;28;20041;-77
2023/10/09 21:24:50;;;;;;;0.45;0.20;;;;;;;22.70;100.00;102040.31;10437383;28;20106;-77
2023/10/09 21:29:52;;;;;;;0.57;0.47;;;;;;;22.91;100.00;102038.44;10428837;28;20045;-77
2023/10/09 21:34:54;;;;;;;0.38;0.25;;;;;;;22.84;100.00;102045.50;10442300;28;20056;-77
2023/10/09 21:39:56;;;;;;;0.10;0.10;;;;;;;22.94;100.00;102043.66;10454186;28;20151;-77
2023/10/09 21:44:58;;;;;;;0.57;0.55;;;;;;;23.31;100.00;102039.91;10441193;28;20049;-77
2023/10/09 21:49:59;;;;;;;0.43;0.17;;;;;;;23.18;100.00;102036.50;10453823;28;20053;-76
2023/10/09 21:55:01;;;;;;;0.25;0.25;;;;;;;22.98;100.00;102035.75;10454637;28;20045;-78
2023/10/09 22:00:10;;;;;;;0.00;0.00;;;;;;;23.13;100.00;102029.47;10453818;28;20041;-77
2023/10/09 22:05:13;;;;;;;0.63;0.57;;;;;;;23.32;100.00;102028.47;10452345;28;20053;-77
2023/10/09 22:10:15;;;;;;;0.20;0.10;;;;;;;23.30;100.00;102025.88;10453805;28;20094;-76
2023/10/09 22:15:18;;;;;;;0.32;0.32;;;;;;;23.61;100.00;102033.44;10453896;28;20075;-77
2023/10/09 22:20:20;;;;;;;0.03;0.03;;;;;;;23.47;100.00;102025.69;10454522;28;20056;-77
2023/10/09 22:25:25;;;;;;;0.00;0.00;;;;;;;23.54;100.00;102022.09;10432135;28;20041;-76
2023/10/09 22:30:29;;;;;;;0.00;0.00;;;;;;;23.29;100.00;102024.13;10461259;28;20045;-77
2023/10/09 22:35:33;;;;;;;0.00;0.00;;;;;;;23.23;100.00;102016.28;10461004;28;20111;-77
2023/10/09 22:40:39;;;;;;;0.08;0.08;;;;;;;23.01;100.00;102029.59;10444228;28;20496;-77
2023/10/09 22:45:56;;;;;;;0.52;0.47;;;;;;;23.12;100.00;102026.88;10444095;28;20044;-76
2023/10/09 22:50:58;;;;;;;0.10;0.08;;;;;;;22.47;100.00;102024.72;10459803;28;21309;-77
2023/10/09 22:56:01;;;;;;;0.73;0.52;;;;;;;22.33;100.00;102020.41;10460077;28;20504;-77
2023/10/09 23:01:21;;;;;;;0.52;0.30;;;;;;;22.80;100.00;102010.50;10460345;28;20095;-77
2023/10/09 23:06:33;;;;;;;0.60;0.57;;;;;;;23.01;100.00;102016.44;10460905;28;20424;-77
2023/10/09 23:11:35;;;;;;;0.30;0.22;;;;;;;22.86;100.00;102013.94;10451513;28;20033;-77
2023/10/09 23:32:51;;;;;;;0.38;0.30;;;;;;;21.95;100.00;102012.69;10459882;28;20041;-77
2023/10/09 23:43:16;;;;;;;2.05;0.43;;;;;;;22.39;100.00;102019.50;10451251;28;20542;-76
2023/10/09 23:48:24;;;;;;;0.38;0.13;;;;;;;22.25;100.00;102016.94;10459238;28;20048;-75
2023/10/09 23:53:33;;;;;;;0.60;0.22;;;;;;;21.69;100.00;102011.03;10457714;28;20464;-75
2023/10/09 23:58:37;;;;;;;2.00;0.45;;;;;;;21.77;100.00;102009.28;10459046;28;20381;-76
